Time;durP1;ratioP1;P1;durP2;ratioP2;P2;SDS_P1;SDS_P2;PMS_P1;PMS_P2;Temp;Humidity;BMP_temperature;BMP_pressure;BME280_temperature;BME280_humidity;BME280_pressure;Samples;Min_cycle;Max_cycle;Signal;HPM_P1;HPM_P2
2023/07/06 00:02:00;;;;;;;;;;;22.60;69.90;;;;;;5009147;28;92159;-44
2023/07/06 00:04:26;;;;;;;;;;;22.50;69.90;;;;;;5009025;28;92209;-45
2023/07/06 00:06:52;;;;;;;;;;;22.50;69.90;;;;;;5009402;28;92607;-46
2023/07/06 00:09:18;;;;;;;;;;;22.50;70.00;;;;;;5005507;28;94034;-46
2023/07/06 00:11:44;;;;;;;;;;;22.50;70.00;;;;;;5008584;28;92231;-44
2023/07/06 00:14:11;;;;;;;;;;;22.50;69.90;;;;;;5009437;28;94021;-45
2023/07/06 00:16:41;;;;;;;;;;;22.50;69.90;;;;;;5008020;28;94736;-45
2023/07/06 00:19:07;;;;;;;;;;;22.50;69.80;;;;;;5008979;28;93821;-45
2023/07/06 00:21:32;;;;;;;;;;;22.50;69.90;;;;;;5007655;28;94216;-45
2023/07/06 00:23:58;;;;;;;;;;;22.50;69.90;;;;;;5006634;28;92467;-44
2023/07/06 00:26:23;;;;;;;;;;;22.50;69.90;;;;;;5010375;28;91999;-44
2023/07/06 00:28:49;;;;;;;;;;;22.40;69.90;;;;;;5006559;28;93352;-44
2023/07/06 00:31:31;;;;;;;;;;;22.40;69.90;;;;;;5009593;28;92178;-45
2023/07/06 00:33:57;;;;;;;;;;;22.40;69.90;;;;;;5008927;28;93166;-45
2023/07/06 00:36:22;;;;;;;;;;;22.40;69.90;;;;;;5006705;28;93696;-45
2023/07/06 00:38:48;;;;;;;;;;;22.40;70.00;;;;;;5009967;28;92083;-46
2023/07/06 00:41:13;;;;;;;;;;;22.40;69.90;;;;;;5003949;28;96390;-45
2023/07/06 00:43:46;;;;;;;;;;;22.40;69.90;;;;;;5008384;28;92310;-45
2023/07/06 00:46:12;;;;;;;;;;;22.40;70.00;;;;;;5006715;28;92951;-44
2023/07/06 00:48:44;;;;;;;;;;;22.30;70.00;;;;;;5007019;28;92845;-46
2023/07/06 00:51:13;;;;;;;;;;;22.30;70.00;;;;;;5010020;28;91959;-45
2023/07/06 00:53:41;;;;;;;;;;;22.30;70.00;;;;;;5006702;28;93174;-45
2023/07/06 00:56:08;;;;;;;;;;;22.30;70.00;;;;;;5005243;28;94593;-45
2023/07/06 00:58:36;;;;;;;;;;;22.30;69.90;;;;;;5008770;28;93149;-44
2023/07/06 01:01:04;;;;;;;;;;;22.30;70.50;;;;;;5006845;28;95210;-45
2023/07/06 01:03:30;;;;;;;;;;;22.30;70.00;;;;;;5009026;28;92238;-48
2023/07/06 01:05:58;;;;;;;;;;;22.30;70.00;;;;;;5004988;28;92495;-44
2023/07/06 01:08:25;;;;;;;;;;;22.20;70.00;;;;;;5005603;28;94118;-46
2023/07/06 01:10:53;;;;;;;;;;;22.30;70.00;;;;;;5009050;28;93985;-44
2023/07/06 01:13:19;;;;;;;;;;;22.30;70.00;;;;;;5002158;28;92887;-46
2023/07/06 01:16:05;;;;;;;;;;;22.20;70.00;;;;;;5009867;28;93732;-44
2023/07/06 01:18:35;;;;;;;;;;;22.20;70.00;;;;;;5006417;28;92224;-46
2023/07/06 01:21:16;;;;;;;;;;;22.20;70.10;;;;;;5007592;28;92398;-45
2023/07/06 01:23:50;;;;;;;;;;;22.20;70.10;;;;;;5002710;28;93905;-45
2023/07/06 01:26:16;;;;;;;;;;;22.20;70.10;;;;;;5007437;28;94842;-45
2023/07/06 01:28:59;;;;;;;;;;;22.20;70.10;;;;;;5007049;28;93843;-44
2023/07/06 01:31:37;;;;;;;;;;;22.20;70.10;;;;;;5005904;28;92153;-48
2023/07/06 01:34:02;;;;;;;;;;;22.20;70.10;;;;;;5004312;28;92327;-44
2023/07/06 01:36:38;;;;;;;;;;;22.20;70.10;;;;;;5007772;28;93178;-45
2023/07/06 01:39:10;;;;;;;;;;;22.10;70.10;;;;;;5007743;28;92197;-44
2023/07/06 01:41:36;;;;;;;;;;;22.20;70.20;;;;;;5006557;28;93737;-45
2023/07/06 01:44:04;;;;;;;;;;;22.10;70.20;;;;;;5012993;28;93386;-44
2023/07/06 01:46:29;;;;;;;;;;;22.10;70.20;;;;;;5011494;28;93850;-44
2023/07/06 01:48:55;;;;;;;;;;;22.10;70.20;;;;;;5009590;28;94232;-44
2023/07/06 01:51:30;;;;;;;;;;;22.10;70.20;;;;;;5006276;28;92178;-45
2023/07/06 01:54:06;;;;;;;;;;;22.10;70.20;;;;;;5009705;28;93737;-46
2023/07/06 01:56:38;;;;;;;;;;;22.00;70.20;;;;;;5005503;28;93280;-45
2023/07/06 01:59:07;;;;;;;;;;;22.00;70.30;;;;;;5010084;28;92150;-46
2023/07/06 02:01:35;;;;;;;;;;;22.00;70.30;;;;;;5011698;28;92853;-44
2023/07/06 02:04:02;;;;;;;;;;;22.00;70.90;;;;;;5010042;28;93366;-45
2023/07/06 02:06:28;;;;;;;;;;;22.00;70.30;;;;;;5014302;28;91370;-45
2023/07/06 02:08:54;;;;;;;;;;;22.00;70.30;;;;;;5009891;28;93352;-45
2023/07/06 02:11:20;;;;;;;;;;;22.00;70.30;;;;;;5008126;28;92215;-44
2023/07/06 02:13:46;;;;;;;;;;;22.00;70.30;;;;;;5010941;28;93801;-45
2023/07/06 02:16:15;;;;;;;;;;;22.00;70.30;;;;;;5009151;28;93150;-46
2023/07/06 02:18:41;;;;;;;;;;;22.00;70.20;;;;;;5011202;28;92248;-44
2023/07/06 02:21:06;;;;;;;;;;;22.00;70.20;;;;;;5008975;28;92540;-45
2023/07/06 02:23:32;;;;;;;;;;;21.90;70.20;;;;;;5011499;28;93757;-44
2023/07/06 02:25:58;;;;;;;;;;;21.90;70.30;;;;;;5009344;28;92299;-44
2023/07/06 02:28:24;;;;;;;;;;;21.90;70.30;;;;;;5011364;28;93791;-44
2023/07/06 02:30:50;;;;;;;;;;;21.90;70.20;;;;;;5012968;28;91855;-45
2023/07/06 02:33:19;;;;;;;;;;;21.90;70.30;;;;;;5008737;28;92792;-47
2023/07/06 02:35:45;;;;;;;;;;;21.90;70.30;;;;;;5010785;28;92467;-45
2023/07/06 02:38:15;;;;;;;;;;;21.90;70.30;;;;;;5008222;28;93069;-46
2023/07/06 02:40:40;;;;;;;;;;;21.80;70.30;;;;;;5008808;28;93315;-46
2023/07/06 02:43:07;;;;;;;;;;;21.80;70.40;;;;;;5011454;28;92296;-44
2023/07/06 02:45:33;;;;;;;;;;;21.90;70.30;;;;;;5008628;28;92269;-48
2023/07/06 02:47:58;;;;;;;;;;;21.80;70.30;;;;;;5011847;28;92338;-46
2023/07/06 02:50:24;;;;;;;;;;;21.80;70.40;;;;;;5009873;28;93251;-44
2023/07/06 02:52:50;;;;;;;;;;;21.80;70.40;;;;;;5004339;28;92609;-44
2023/07/06 02:55:16;;;;;;;;;;;21.80;70.40;;;;;;5011895;28;91782;-45
2023/07/06 02:57:42;;;;;;;;;;;21.80;70.30;;;;;;5007107;28;92132;-44
2023/07/06 03:00:17;;;;;;;;;;;21.80;70.30;;;;;;5008804;28;92557;-46
2023/07/06 03:02:43;;;;;;;;;;;21.80;70.40;;;;;;5004030;28;94098;-44
2023/07/06 03:05:09;;;;;;;;;;;21.80;70.30;;;;;;5011587;28;92101;-45
2023/07/06 03:07:34;;;;;;;;;;;21.80;70.30;;;;;;5007983;28;94092;-46
2023/07/06 03:10:04;;;;;;;;;;;21.70;70.40;;;;;;5011088;28;94766;-46
2023/07/06 03:12:33;;;;;;;;;;;21.70;70.40;;;;;;5001437;28;92492;-44
2023/07/06 03:14:59;;;;;;;;;;;21.70;70.30;;;;;;5008171;28;94553;-46
2023/07/06 03:17:25;;;;;;;;;;;21.70;70.30;;;;;;5008194;28;92253;-44
2023/07/06 03:19:51;;;;;;;;;;;21.70;70.30;;;;;;5004505;28;92640;-44
2023/07/06 03:22:17;;;;;;;;;;;21.70;70.30;;;;;;5006448;28;94197;-44
2023/07/06 03:24:44;;;;;;;;;;;21.60;70.40;;;;;;5008202;28;92110;-45
2023/07/06 03:27:10;;;;;;;;;;;21.70;70.40;;;;;;4998696;28;93146;-45
2023/07/06 03:29:36;;;;;;;;;;;21.70;70.30;;;;;;4997212;28;93134;-44
2023/07/06 03:32:02;;;;;;;;;;;21.70;70.40;;;;;;5009280;28;92572;-46
2023/07/06 03:34:28;;;;;;;;;;;21.70;70.40;;;;;;5007371;28;92918;-48
2023/07/06 03:36:53;;;;;;;;;;;21.60;70.50;;;;;;5003620;28;92289;-44
2023/07/06 03:39:19;;;;;;;;;;;21.60;70.40;;;;;;4993540;28;92204;-43
2023/07/06 03:41:44;;;;;;;;;;;21.60;70.40;;;;;;5001907;28;94491;-46
2023/07/06 03:44:10;;;;;;;;;;;21.60;70.50;;;;;;5010620;28;91447;-45
2023/07/06 03:46:36;;;;;;;;;;;21.60;70.60;;;;;;5006558;28;93013;-45
2023/07/06 03:49:08;;;;;;;;;;;21.50;70.60;;;;;;5000153;28;93396;-44
2023/07/06 03:51:33;;;;;;;;;;;21.50;70.70;;;;;;5001864;28;93108;-44
2023/07/06 03:54:00;;;;;;;;;;;21.50;70.60;;;;;;5012574;28;93279;-45
2023/07/06 03:56:28;;;;;;;;;;;21.50;70.60;;;;;;5002145;28;92171;-45
2023/07/06 03:58:57;;;;;;;;;;;21.50;70.50;;;;;;4992723;28;92787;-44
2023/07/06 04:01:23;;;;;;;;;;;21.50;70.60;;;;;;5003422;28;94780;-45
2023/07/06 04:03:49;;;;;;;;;;;21.50;70.70;;;;;;5006987;28;92791;-45
2023/07/06 04:06:15;;;;;;;;;;;21.50;70.60;;;;;;5002727;28;93367;-47
2023/07/06 04:08:40;;;;;;;;;;;21.50;70.60;;;;;;4999399;28;93684;-44
2023/07/06 04:11:06;;;;;;;;;;;21.50;70.70;;;;;;5005828;28;92309;-44
2023/07/06 04:13:32;;;;;;;;;;;21.50;70.60;;;;;;5008831;28;94453;-44
2023/07/06 04:15:58;;;;;;;;;;;21.40;70.70;;;;;;5005233;28;95335;-44
2023/07/06 04:18:24;;;;;;;;;;;21.40;70.70;;;;;;5004822;28;93588;-45
2023/07/06 04:20:49;;;;;;;;;;;21.40;70.70;;;;;;5007024;28;94575;-44
2023/07/06 04:23:15;;;;;;;;;;;21.40;70.70;;;;;;5009309;28;92477;-44
2023/07/06 04:25:41;;;;;;;;;;;21.40;70.80;;;;;;4998752;28;92380;-44
2023/07/06 04:28:11;;;;;;;;;;;21.40;70.80;;;;;;5000601;28;93080;-45
2023/07/06 04:30:43;;;;;;;;;;;21.40;70.70;;;;;;5008846;28;92173;-46
2023/07/06 04:33:13;;;;;;;;;;;21.40;70.70;;;;;;5009597;28;92158;-44
2023/07/06 04:35:41;;;;;;;;;;;21.40;70.80;;;;;;4996553;28;94478;-44
2023/07/06 04:38:06;;;;;;;;;;;21.40;70.70;;;;;;5005646;28;92168;-44
2023/07/06 04:40:32;;;;;;;;;;;21.40;70.70;;;;;;5007460;28;94070;-44
2023/07/06 04:42:57;;;;;;;;;;;21.40;70.70;;;;;;5004930;28;92057;-44
2023/07/06 04:45:25;;;;;;;;;;;21.40;70.70;;;;;;4996097;28;92189;-46
2023/07/06 04:47:53;;;;;;;;;;;21.40;70.70;;;;;;5002008;28;93028;-45
2023/07/06 04:50:28;;;;;;;;;;;21.40;70.60;;;;;;5008817;28;92343;-44
2023/07/06 04:52:55;;;;;;;;;;;21.40;70.70;;;;;;4996125;28;92623;-44
2023/07/06 04:55:24;;;;;;;;;;;21.40;70.70;;;;;;4998974;28;93388;-46
2023/07/06 04:57:50;;;;;;;;;;;21.40;70.70;;;;;;5005514;28;91496;-44
2023/07/06 05:00:18;;;;;;;;;;;21.40;70.60;;;;;;5008828;28;92633;-46
2023/07/06 05:02:46;;;;;;;;;;;21.40;70.60;;;;;;5002198;28;92694;-44
2023/07/06 05:05:12;;;;;;;;;;;21.40;70.70;;;;;;5000670;28;94157;-46
2023/07/06 05:07:38;;;;;;;;;;;21.40;70.70;;;;;;5004388;28;93133;-45
2023/07/06 05:10:04;;;;;;;;;;;21.40;70.70;;;;;;5009518;28;92481;-44
2023/07/06 05:12:29;;;;;;;;;;;21.40;70.60;;;;;;4995095;28;92231;-44
2023/07/06 05:14:55;;;;;;;;;;;21.40;70.70;;;;;;4996393;28;93522;-44
2023/07/06 05:17:20;;;;;;;;;;;21.40;70.70;;;;;;5012409;28;92718;-46
2023/07/06 05:19:46;;;;;;;;;;;21.40;70.70;;;;;;5010895;28;92546;-45
2023/07/06 05:22:12;;;;;;;;;;;21.40;70.70;;;;;;5000821;28;92663;-45
2023/07/06 05:24:39;;;;;;;;;;;21.40;70.60;;;;;;5007114;28;92138;-44
2023/07/06 05:27:05;;;;;;;;;;;21.40;70.60;;;;;;5010202;28;94368;-46
2023/07/06 05:29:32;;;;;;;;;;;21.40;70.70;;;;;;5009526;28;93119;-45
2023/07/06 05:31:57;;;;;;;;;;;21.40;70.70;;;;;;5001792;28;93976;-44
2023/07/06 05:34:23;;;;;;;;;;;21.40;70.60;;;;;;5006808;28;92991;-44
2023/07/06 05:36:48;;;;;;;;;;;21.40;70.60;;;;;;5010565;28;92171;-44
2023/07/06 05:39:13;;;;;;;;;;;21.40;70.70;;;;;;5011674;28;92253;-46
2023/07/06 05:41:39;;;;;;;;;;;21.40;70.70;;;;;;4999792;28;93018;-46
2023/07/06 05:44:05;;;;;;;;;;;21.40;70.70;;;;;;5005342;28;92311;-44
2023/07/06 05:46:30;;;;;;;;;;;21.40;70.70;;;;;;5012106;28;92275;-45
2023/07/06 05:48:56;;;;;;;;;;;21.40;70.70;;;;;;5003620;28;92210;-44
2023/07/06 05:51:21;;;;;;;;;;;21.50;70.70;;;;;;5002988;28;92725;-45
2023/07/06 05:53:48;;;;;;;;;;;21.40;70.70;;;;;;5007583;28;94209;-45
2023/07/06 05:56:15;;;;;;;;;;;21.50;70.80;;;;;;5013128;28;92119;-44
2023/07/06 05:58:41;;;;;;;;;;;21.50;70.80;;;;;;5001997;28;93903;-45
2023/07/06 06:01:07;;;;;;;;;;;21.50;70.80;;;;;;5001916;28;93260;-47
2023/07/06 06:03:32;;;;;;;;;;;21.50;70.70;;;;;;5008131;28;92143;-45
2023/07/06 06:05:58;;;;;;;;;;;21.50;70.80;;;;;;5010315;28;94587;-49
2023/07/06 06:08:24;;;;;;;;;;;21.50;70.80;;;;;;5001330;28;92204;-45
2023/07/06 06:10:50;;;;;;;;;;;21.50;70.80;;;;;;5007592;28;94458;-47
2023/07/06 06:13:16;;;;;;;;;;;21.50;70.80;;;;;;5007580;28;95449;-44
2023/07/06 06:15:42;;;;;;;;;;;21.40;70.80;;;;;;5007271;28;92858;-46
2023/07/06 06:18:08;;;;;;;;;;;21.50;70.90;;;;;;5003357;28;93458;-47
2023/07/06 06:20:36;;;;;;;;;;;21.40;70.90;;;;;;5005143;28;93033;-47
2023/07/06 06:23:02;;;;;;;;;;;21.50;71.00;;;;;;5008137;28;92246;-48
2023/07/06 06:25:28;;;;;;;;;;;21.50;71.00;;;;;;5009805;28;92454;-46
2023/07/06 06:27:53;;;;;;;;;;;21.50;71.10;;;;;;5000982;28;93320;-46
2023/07/06 06:30:19;;;;;;;;;;;21.50;71.10;;;;;;5006070;28;92431;-49
2023/07/06 06:32:45;;;;;;;;;;;21.50;71.00;;;;;;5007771;28;93673;-46
2023/07/06 06:35:24;;;;;;;;;;;21.50;70.90;;;;;;4999294;28;91459;-48
2023/07/06 06:37:49;;;;;;;;;;;21.50;71.00;;;;;;5000977;28;92280;-47
2023/07/06 06:40:15;;;;;;;;;;;21.50;70.90;;;;;;5009514;28;92901;-45
2023/07/06 06:42:41;;;;;;;;;;;21.50;70.90;;;;;;5007554;28;93102;-48
2023/07/06 06:45:07;;;;;;;;;;;21.50;71.00;;;;;;5003387;28;93692;-51
2023/07/06 06:47:32;;;;;;;;;;;21.50;71.10;;;;;;5001876;28;94768;-50
2023/07/06 06:49:58;;;;;;;;;;;21.50;71.10;;;;;;5008179;28;92727;-49
2023/07/06 06:52:25;;;;;;;;;;;21.50;71.10;;;;;;5002785;28;93364;-47
2023/07/06 06:54:51;;;;;;;;;;;21.50;71.00;;;;;;5005919;28;92154;-45
2023/07/06 06:57:16;;;;;;;;;;;21.50;71.00;;;;;;4998291;28;93920;-45
2023/07/06 06:59:43;;;;;;;;;;;21.50;71.00;;;;;;5007385;28;94539;-47
2023/07/06 07:02:09;;;;;;;;;;;21.50;71.10;;;;;;5004020;28;92425;-45
2023/07/06 07:04:34;;;;;;;;;;;21.50;71.00;;;;;;4998448;28;93212;-46
2023/07/06 07:07:03;;;;;;;;;;;21.50;71.00;;;;;;5004217;28;94150;-46
2023/07/06 07:09:29;;;;;;;;;;;21.50;70.90;;;;;;5011946;28;92208;-47
2023/07/06 07:11:55;;;;;;;;;;;21.60;71.00;;;;;;5001046;28;93102;-45
2023/07/06 07:14:20;;;;;;;;;;;21.60;71.10;;;;;;4998580;28;92249;-44
2023/07/06 07:16:46;;;;;;;;;;;21.50;71.00;;;;;;5006609;28;93876;-44
2023/07/06 07:19:12;;;;;;;;;;;21.50;71.00;;;;;;5008556;28;93493;-45
2023/07/06 07:21:37;;;;;;;;;;;21.60;71.00;;;;;;5002908;28;93767;-44
2023/07/06 07:24:03;;;;;;;;;;;21.60;71.00;;;;;;5001195;28;92296;-46
2023/07/06 07:26:29;;;;;;;;;;;21.60;71.00;;;;;;5006714;28;92648;-46
2023/07/06 07:28:55;;;;;;;;;;;21.50;71.00;;;;;;5006594;28;92179;-44
2023/07/06 07:31:22;;;;;;;;;;;21.60;71.10;;;;;;5007994;28;93625;-44
2023/07/06 07:33:47;;;;;;;;;;;21.60;71.00;;;;;;4995442;28;92219;-45
2023/07/06 07:36:14;;;;;;;;;;;21.60;71.10;;;;;;5006932;28;93653;-44
2023/07/06 07:38:39;;;;;;;;;;;21.60;71.10;;;;;;5007710;28;92704;-45
2023/07/06 07:41:09;;;;;;;;;;;21.60;71.10;;;;;;5002288;28;92476;-45
2023/07/06 07:43:36;;;;;;;;;;;21.60;71.20;;;;;;5000404;28;93110;-44
2023/07/06 07:46:03;;;;;;;;;;;21.60;71.90;;;;;;5003406;28;94259;-46
2023/07/06 07:48:30;;;;;;;;;;;21.60;71.10;;;;;;5006240;28;92118;-45
2023/07/06 07:50:56;;;;;;;;;;;21.60;71.10;;;;;;5012684;28;93285;-44
2023/07/06 07:53:23;;;;;;;;;;;21.60;71.20;;;;;;5007982;28;92173;-46
2023/07/06 07:55:53;;;;;;;;;;;21.50;71.30;;;;;;5011006;28;93078;-44
2023/07/06 07:58:19;;;;;;;;;;;21.60;71.10;;;;;;5006720;28;93200;-47
2023/07/06 08:00:51;;;;;;;;;;;21.60;71.80;;;;;;5007896;28;92203;-46
2023/07/06 08:03:17;;;;;;;;;;;21.60;71.10;;;;;;5004832;28;92448;-44
2023/07/06 08:05:42;;;;;;;;;;;21.60;71.00;;;;;;5008064;28;93042;-44
2023/07/06 08:08:10;;;;;;;;;;;21.60;70.90;;;;;;5008188;28;92304;-43
2023/07/06 08:10:36;;;;;;;;;;;21.60;71.00;;;;;;5007452;28;92438;-46
2023/07/06 08:13:03;;;;;;;;;;;21.70;71.10;;;;;;5010994;28;91934;-44
2023/07/06 08:15:29;;;;;;;;;;;21.60;70.90;;;;;;5007551;28;93228;-45
2023/07/06 08:17:59;;;;;;;;;;;21.70;70.90;;;;;;5006602;28;93018;-46
2023/07/06 08:20:28;;;;;;;;;;;21.60;71.00;;;;;;5002337;28;93600;-44
2023/07/06 08:22:57;;;;;;;;;;;21.70;70.90;;;;;;5009267;28;93288;-44
2023/07/06 08:25:24;;;;;;;;;;;21.70;70.90;;;;;;5008971;28;94580;-47
2023/07/06 08:27:50;;;;;;;;;;;21.70;70.90;;;;;;5005710;28;92225;-44
2023/07/06 08:30:16;;;;;;;;;;;21.70;70.90;;;;;;5006399;28;92305;-45
2023/07/06 08:32:41;;;;;;;;;;;21.70;71.00;;;;;;5007616;28;92948;-44
2023/07/06 08:35:07;;;;;;;;;;;21.70;70.90;;;;;;5009833;28;92239;-44
2023/07/06 08:37:33;;;;;;;;;;;21.70;70.90;;;;;;5006971;28;92490;-44
2023/07/06 08:39:58;;;;;;;;;;;21.70;71.00;;;;;;5009762;28;92163;-44
2023/07/06 08:42:24;;;;;;;;;;;21.70;70.80;;;;;;5007972;28;93856;-44
2023/07/06 08:44:52;;;;;;;;;;;21.80;70.90;;;;;;5001610;28;95924;-44
2023/07/06 08:47:18;;;;;;;;;;;21.80;70.90;;;;;;5006580;28;92184;-45
2023/07/06 08:49:43;;;;;;;;;;;21.80;71.10;;;;;;5005118;28;92519;-44
2023/07/06 08:52:11;;;;;;;;;;;21.80;71.00;;;;;;5011738;28;94450;-45
2023/07/06 08:54:41;;;;;;;;;;;21.80;71.00;;;;;;5012467;28;92139;-48
2023/07/06 08:57:15;;;;;;;;;;;21.80;71.20;;;;;;5012529;28;93748;-44
2023/07/06 08:59:45;;;;;;;;;;;21.90;71.10;;;;;;5009603;28;92167;-45
2023/07/06 09:02:16;;;;;;;;;;;21.80;71.00;;;;;;5009366;28;92522;-44
2023/07/06 09:04:42;;;;;;;;;;;21.80;71.00;;;;;;5005277;28;93148;-48
2023/07/06 09:07:13;;;;;;;;;;;21.80;71.00;;;;;;5010224;28;92298;-47
2023/07/06 09:09:45;;;;;;;;;;;21.80;71.10;;;;;;5007668;28;93988;-45
2023/07/06 09:12:19;;;;;;;;;;;21.80;71.20;;;;;;5011444;28;92777;-44
2023/07/06 09:14:48;;;;;;;;;;;21.80;71.40;;;;;;5009035;28;92148;-44
2023/07/06 09:17:15;;;;;;;;;;;21.90;71.50;;;;;;5012290;28;92457;-44
2023/07/06 09:19:40;;;;;;;;;;;21.90;71.20;;;;;;5013328;28;93117;-45
2023/07/06 09:22:09;;;;;;;;;;;21.90;71.50;;;;;;5008358;28;92469;-45
2023/07/06 09:24:34;;;;;;;;;;;21.90;71.10;;;;;;5011211;28;93034;-46
2023/07/06 09:27:08;;;;;;;;;;;21.90;71.20;;;;;;5011102;28;91577;-45
2023/07/06 09:29:37;;;;;;;;;;;21.90;71.20;;;;;;5008949;28;92119;-44
2023/07/06 09:32:14;;;;;;;;;;;22.00;71.20;;;;;;5005732;28;92236;-44
2023/07/06 09:34:44;;;;;;;;;;;22.00;71.30;;;;;;5008209;28;93380;-46
2023/07/06 09:37:11;;;;;;;;;;;22.00;71.60;;;;;;5006890;28;95163;-45
2023/07/06 09:39:37;;;;;;;;;;;22.00;71.80;;;;;;5010305;28;94066;-44
2023/07/06 09:42:03;;;;;;;;;;;22.00;71.80;;;;;;5013566;28;92123;-45
2023/07/06 09:44:29;;;;;;;;;;;22.00;71.80;;;;;;5011002;28;93230;-44
2023/07/06 09:46:56;;;;;;;;;;;22.00;71.30;;;;;;5005102;28;92650;-45
2023/07/06 09:49:23;;;;;;;;;;;22.10;72.20;;;;;;5011642;28;92419;-44
2023/07/06 09:52:04;;;;;;;;;;;22.10;71.40;;;;;;5008268;28;92349;-49
2023/07/06 09:54:36;;;;;;;;;;;22.10;71.80;;;;;;5008209;28;92249;-44
2023/07/06 09:57:08;;;;;;;;;;;22.10;71.60;;;;;;5009023;28;93736;-45
2023/07/06 09:59:36;;;;;;;;;;;22.10;71.70;;;;;;5004912;28;94534;-48
2023/07/06 10:02:01;;;;;;;;;;;22.10;72.10;;;;;;5013436;28;92134;-45
2023/07/06 10:04:48;;;;;;;;;;;22.10;72.10;;;;;;5008896;28;96268;-44
2023/07/06 10:07:28;;;;;;;;;;;22.20;72.20;;;;;;5009895;28;92789;-45
2023/07/06 10:10:13;;;;;;;;;;;22.10;72.20;;;;;;5008554;28;92627;-44
2023/07/06 10:12:38;;;;;;;;;;;22.20;72.30;;;;;;5006860;28;92473;-45
2023/07/06 10:15:08;;;;;;;;;;;22.20;72.30;;;;;;5008835;28;92144;-46
2023/07/06 10:17:37;;;;;;;;;;;22.20;72.40;;;;;;5012582;28;94046;-47
2023/07/06 10:20:09;;;;;;;;;;;22.20;72.20;;;;;;5008913;28;94204;-45
2023/07/06 10:22:43;;;;;;;;;;;22.20;72.10;;;;;;5007195;28;92185;-48
2023/07/06 10:25:21;;;;;;;;;;;22.20;72.30;;;;;;5008631;28;93127;-44
2023/07/06 10:27:48;;;;;;;;;;;22.30;72.40;;;;;;5007664;28;92139;-44
2023/07/06 10:30:33;;;;;;;;;;;22.30;72.40;;;;;;5008073;28;92942;-45
2023/07/06 10:33:06;;;;;;;;;;;22.30;72.30;;;;;;5004760;28;93692;-46
2023/07/06 10:35:37;;;;;;;;;;;22.30;72.10;;;;;;5009699;28;92398;-47
2023/07/06 10:38:06;;;;;;;;;;;22.40;71.90;;;;;;5009079;28;92640;-46
2023/07/06 10:40:32;;;;;;;;;;;22.40;72.10;;;;;;5008628;28;94844;-45
2023/07/06 10:43:07;;;;;;;;;;;22.40;72.00;;;;;;5009632;28;91944;-46
2023/07/06 10:45:33;;;;;;;;;;;22.40;71.90;;;;;;5003879;28;92407;-47
2023/07/06 10:48:16;;;;;;;;;;;22.40;72.00;;;;;;5010932;28;93003;-44
2023/07/06 10:50:50;;;;;;;;;;;22.40;72.10;;;;;;5004541;28;93020;-44
2023/07/06 10:53:28;;;;;;;;;;;22.40;72.30;;;;;;5006608;28;92890;-45
2023/07/06 10:55:55;;;;;;;;;;;22.40;72.20;;;;;;5006721;28;92664;-46
2023/07/06 10:58:24;;;;;;;;;;;22.50;72.10;;;;;;5009191;28;92131;-50
2023/07/06 11:00:50;;;;;;;;;;;22.50;72.00;;;;;;5007998;28;94591;-48
2023/07/06 11:03:17;;;;;;;;;;;22.50;71.90;;;;;;5007605;28;92565;-50
2023/07/06 11:06:15;;;;;;;;;;;22.50;72.00;;;;;;5007907;28;92658;-48
2023/07/06 11:09:01;;;;;;;;;;;22.50;72.10;;;;;;4992153;28;92251;-48
2023/07/06 11:11:28;;;;;;;;;;;22.50;72.00;;;;;;5009732;28;93270;-46
2023/07/06 11:13:54;;;;;;;;;;;22.50;72.00;;;;;;5008776;28;94692;-45
2023/07/06 11:16:38;;;;;;;;;;;22.60;72.00;;;;;;5001883;28;93148;-45
2023/07/06 11:19:04;;;;;;;;;;;22.60;71.90;;;;;;5003897;28;92691;-44
2023/07/06 11:21:38;;;;;;;;;;;22.60;71.90;;;;;;5007540;28;92984;-44
2023/07/06 11:24:07;;;;;;;;;;;22.60;71.80;;;;;;5005713;28;92285;-47
2023/07/06 11:26:35;;;;;;;;;;;22.60;71.70;;;;;;5008049;28;94139;-44
2023/07/06 11:29:02;;;;;;;;;;;22.60;71.80;;;;;;5007892;28;93196;-44
2023/07/06 11:31:30;;;;;;;;;;;22.70;71.90;;;;;;5005520;28;93465;-44
2023/07/06 11:33:56;;;;;;;;;;;22.70;71.70;;;;;;5011709;28;92783;-44
2023/07/06 11:36:37;;;;;;;;;;;22.70;71.70;;;;;;5007651;28;92477;-45
2023/07/06 11:39:12;;;;;;;;;;;22.70;71.70;;;;;;5006305;28;92438;-44
2023/07/06 11:41:47;;;;;;;;;;;22.70;72.30;;;;;;5005269;28;93635;-45
2023/07/06 11:44:31;;;;;;;;;;;22.70;71.60;;;;;;5004622;28;92175;-44
2023/07/06 11:47:07;;;;;;;;;;;22.70;71.60;;;;;;5006567;28;92501;-45
2023/07/06 11:49:43;;;;;;;;;;;22.70;71.60;;;;;;5005953;28;93006;-44
2023/07/06 11:52:13;;;;;;;;;;;22.80;71.60;;;;;;5002768;28;92324;-44
2023/07/06 11:54:43;;;;;;;;;;;22.80;71.50;;;;;;5012839;28;92487;-44
2023/07/06 11:57:41;;;;;;;;;;;22.80;71.50;;;;;;5003916;28;92210;-44
2023/07/06 12:02:47;;;;;;;;;;;22.80;71.60;;;;;;5000633;28;93015;-44
2023/07/06 12:05:25;;;;;;;;;;;22.80;71.60;;;;;;5008689;28;92456;-45
2023/07/06 12:08:01;;;;;;;;;;;22.80;71.60;;;;;;5001469;28;93823;-44
2023/07/06 12:10:32;;;;;;;;;;;22.80;71.70;;;;;;5009327;28;93049;-45
2023/07/06 12:12:57;;;;;;;;;;;22.80;71.60;;;;;;5004333;28;92303;-46
2023/07/06 12:15:23;;;;;;;;;;;22.80;71.60;;;;;;5005404;28;92116;-45
2023/07/06 12:17:55;;;;;;;;;;;22.80;71.60;;;;;;5012085;28;93184;-47
2023/07/06 12:20:23;;;;;;;;;;;22.80;71.60;;;;;;5003328;28;93929;-46
2023/07/06 12:22:53;;;;;;;;;;;22.80;71.60;;;;;;5007456;28;93113;-45
2023/07/06 12:25:19;;;;;;;;;;;22.80;71.50;;;;;;5007193;28;91480;-45
2023/07/06 12:27:45;;;;;;;;;;;22.90;71.60;;;;;;5010354;28;92174;-46
2023/07/06 12:30:12;;;;;;;;;;;22.90;71.50;;;;;;5006897;28;93143;-44
2023/07/06 12:32:37;;;;;;;;;;;22.90;71.50;;;;;;5007581;28;93161;-44
2023/07/06 12:35:04;;;;;;;;;;;22.90;71.40;;;;;;5007568;28;93260;-43
2023/07/06 12:37:30;;;;;;;;;;;22.90;71.40;;;;;;5008610;28;94484;-43
2023/07/06 12:39:56;;;;;;;;;;;22.90;71.40;;;;;;5009176;28;92216;-43
2023/07/06 12:42:21;;;;;;;;;;;22.90;71.40;;;;;;5007691;28;93219;-44
2023/07/06 12:44:50;;;;;;;;;;;22.90;71.30;;;;;;5008508;28;92224;-44
2023/07/06 12:47:33;;;;;;;;;;;22.90;71.30;;;;;;5002321;28;92528;-44
2023/07/06 12:50:05;;;;;;;;;;;22.90;71.30;;;;;;5008829;28;92706;-44
2023/07/06 12:52:32;;;;;;;;;;;22.90;71.30;;;;;;5003138;28;92348;-44
2023/07/06 12:54:58;;;;;;;;;;;22.90;71.90;;;;;;5006773;28;92754;-45
2023/07/06 12:57:28;;;;;;;;;;;22.90;71.30;;;;;;5006866;28;94242;-44
2023/07/06 13:00:09;;;;;;;;;;;23.00;71.30;;;;;;5001943;28;92136;-45
2023/07/06 13:02:36;;;;;;;;;;;23.00;71.30;;;;;;5007376;28;92677;-44
2023/07/06 13:05:14;;;;;;;;;;;23.00;71.30;;;;;;5008302;28;92343;-44
2023/07/06 13:07:40;;;;;;;;;;;23.00;71.30;;;;;;5008461;28;92438;-44
2023/07/06 13:10:06;;;;;;;;;;;23.00;71.20;;;;;;5003609;28;94235;-44
2023/07/06 13:12:34;;;;;;;;;;;23.00;71.20;;;;;;5006072;28;92186;-46
2023/07/06 13:15:00;;;;;;;;;;;23.00;71.20;;;;;;5006636;28;93890;-44
2023/07/06 13:17:26;;;;;;;;;;;23.00;71.10;;;;;;5004704;28;96582;-46
2023/07/06 13:19:52;;;;;;;;;;;23.00;71.10;;;;;;5003960;28;92467;-45
2023/07/06 13:22:20;;;;;;;;;;;23.10;71.10;;;;;;5008031;28;93313;-44
2023/07/06 13:24:46;;;;;;;;;;;23.10;71.10;;;;;;5009846;28;94623;-46
2023/07/06 13:27:12;;;;;;;;;;;23.10;71.00;;;;;;5004714;28;93618;-44
2023/07/06 13:29:38;;;;;;;;;;;23.10;70.90;;;;;;5000807;28;92754;-44
2023/07/06 13:32:04;;;;;;;;;;;23.20;70.90;;;;;;5006932;28;92168;-44
2023/07/06 13:34:31;;;;;;;;;;;23.20;70.80;;;;;;5007382;28;92793;-46
2023/07/06 13:36:58;;;;;;;;;;;23.10;70.80;;;;;;5010835;28;94343;-44
2023/07/06 13:39:24;;;;;;;;;;;23.20;70.90;;;;;;5007863;28;91421;-46
2023/07/06 13:41:49;;;;;;;;;;;23.10;70.80;;;;;;5008355;28;92218;-44
2023/07/06 13:44:15;;;;;;;;;;;23.20;70.90;;;;;;5008520;28;93134;-46
2023/07/06 13:46:45;;;;;;;;;;;23.20;70.80;;;;;;5012161;28;93168;-44
2023/07/06 13:49:10;;;;;;;;;;;23.20;70.80;;;;;;5003490;28;94493;-45
2023/07/06 13:51:36;;;;;;;;;;;23.20;70.80;;;;;;5010230;28;92197;-44
2023/07/06 13:54:02;;;;;;;;;;;23.20;70.80;;;;;;5005540;28;92576;-45
2023/07/06 13:56:27;;;;;;;;;;;23.20;70.90;;;;;;5008892;28;94404;-44
2023/07/06 13:58:53;;;;;;;;;;;23.20;70.90;;;;;;5008131;28;92246;-45
2023/07/06 14:01:21;;;;;;;;;;;23.20;70.80;;;;;;5010722;28;92671;-44
2023/07/06 14:03:46;;;;;;;;;;;23.20;70.80;;;;;;5009705;28;92333;-44
2023/07/06 14:06:12;;;;;;;;;;;23.20;70.80;;;;;;5014643;28;92187;-50
2023/07/06 14:08:38;;;;;;;;;;;23.20;70.80;;;;;;5007877;28;94409;-45
2023/07/06 14:11:04;;;;;;;;;;;23.20;70.80;;;;;;5006162;28;93183;-45
2023/07/06 14:13:30;;;;;;;;;;;23.20;70.70;;;;;;5009161;28;93971;-43
2023/07/06 14:15:56;;;;;;;;;;;23.20;70.70;;;;;;5008321;28;93349;-44
2023/07/06 14:18:23;;;;;;;;;;;23.20;70.70;;;;;;5005027;28;92789;-44
2023/07/06 14:20:49;;;;;;;;;;;23.20;70.70;;;;;;5004118;28;94184;-44
2023/07/06 14:23:16;;;;;;;;;;;23.20;70.60;;;;;;5008865;28;93240;-44
2023/07/06 14:25:42;;;;;;;;;;;23.20;70.70;;;;;;5008838;28;92223;-45